createdAt,value
2023-02-05T00:02:21.662Z,2.47
2023-02-05T00:04:48.309Z,3.42
2023-02-05T00:07:17.367Z,3.50
2023-02-05T00:09:43.958Z,3.00
2023-02-05T00:12:13.059Z,3.00
2023-02-05T00:14:39.637Z,3.53
2023-02-05T00:17:08.561Z,2.88
2023-02-05T00:19:35.118Z,2.85
2023-02-05T00:22:04.150Z,3.28
2023-02-05T00:24:30.697Z,3.47
2023-02-05T00:26:59.665Z,2.92
2023-02-05T00:29:26.271Z,3.22
2023-02-05T00:31:53.094Z,2.65
2023-02-05T00:34:22.231Z,2.92
2023-02-05T00:36:51.074Z,3.47
2023-02-05T00:39:19.902Z,3.80
2023-02-05T00:41:49.103Z,3.92
2023-02-05T00:44:15.752Z,2.83
2023-02-05T00:46:42.292Z,1.88
2023-02-05T00:49:11.082Z,1.97
2023-02-05T00:51:40.340Z,1.80
2023-02-05T00:54:09.245Z,1.85
2023-02-05T00:56:35.808Z,1.45
2023-02-05T00:59:02.718Z,1.92
2023-02-05T01:01:31.883Z,1.37
2023-02-05T01:03:58.478Z,1.83
2023-02-05T01:06:25.196Z,1.95
2023-02-05T01:08:54.889Z,2.25
2023-02-05T01:11:23.865Z,3.10
2023-02-05T01:13:54.917Z,3.13
2023-02-05T01:16:21.577Z,3.13
2023-02-05T01:18:48.178Z,3.35
2023-02-05T01:21:14.808Z,2.85
2023-02-05T01:23:41.423Z,3.35
2023-02-05T01:26:07.967Z,3.50
2023-02-05T01:28:36.579Z,3.97
2023-02-05T01:31:05.526Z,3.60
2023-02-05T01:33:37.024Z,3.53
2023-02-05T01:36:03.723Z,3.67
2023-02-05T01:38:30.344Z,3.03
2023-02-05T01:41:01.749Z,3.28
2023-02-05T01:43:28.362Z,2.95
2023-02-05T01:46:10.848Z,3.40
2023-02-05T01:48:44.038Z,3.17
2023-02-05T01:51:15.437Z,3.40
2023-02-05T01:53:46.373Z,3.33
2023-02-05T01:56:17.451Z,3.40
2023-02-05T01:58:54.779Z,3.10
2023-02-05T02:01:21.526Z,3.33
2023-02-05T02:03:54.020Z,3.43
2023-02-05T02:06:23.049Z,4.00
2023-02-05T02:08:52.557Z,3.05
2023-02-05T02:11:23.474Z,2.70
2023-02-05T02:13:55.301Z,3.17
2023-02-05T02:16:25.644Z,3.20
2023-02-05T02:18:54.854Z,3.38
2023-02-05T02:21:45.335Z,2.92
2023-02-05T02:24:35.571Z,3.17
2023-02-05T02:27:32.532Z,2.97
2023-02-05T02:30:31.964Z,3.60
2023-02-05T02:33:05.506Z,2.50
2023-02-05T02:35:53.855Z,2.58
2023-02-05T02:38:32.544Z,1.85
2023-02-05T02:41:11.090Z,2.38
2023-02-05T02:43:46.948Z,1.63
2023-02-05T02:46:29.481Z,2.55
2023-02-05T02:49:02.084Z,2.63
2023-02-05T02:51:29.967Z,3.22
2023-02-05T02:54:06.629Z,2.40
2023-02-05T02:56:36.881Z,3.70
2023-02-05T02:59:08.346Z,2.35
2023-02-05T03:01:39.862Z,2.80
2023-02-05T03:04:12.075Z,2.55
2023-02-05T03:06:43.485Z,3.47
2023-02-05T03:09:29.533Z,2.90
2023-02-05T03:11:59.043Z,2.90
2023-02-05T03:14:28.106Z,3.42
2023-02-05T03:16:54.741Z,2.97
2023-02-05T03:19:23.430Z,3.65
2023-02-05T03:22:16.252Z,3.33
2023-02-05T03:24:45.094Z,3.60
2023-02-05T03:27:11.637Z,4.05
2023-02-05T03:29:44.787Z,4.22
2023-02-05T03:32:32.477Z,3.63
2023-02-05T03:35:20.925Z,3.40
2023-02-05T03:38:08.915Z,3.42
2023-02-05T03:40:47.811Z,2.88
2023-02-05T03:43:16.608Z,3.22
2023-02-05T03:45:47.953Z,2.72
2023-02-05T03:48:24.935Z,2.77
2023-02-05T03:50:56.944Z,3.22
2023-02-05T03:53:40.926Z,3.15
2023-02-05T03:56:26.048Z,2.63
2023-02-05T03:59:00.191Z,3.17
2023-02-05T04:01:32.083Z,2.87
2023-02-05T04:03:58.670Z,3.00
2023-02-05T04:06:25.476Z,3.45
2023-02-05T04:08:52.008Z,3.40
2023-02-05T04:11:18.637Z,3.80
2023-02-05T04:13:47.777Z,2.77
2023-02-05T04:16:14.398Z,2.72
2023-02-05T04:18:43.386Z,3.15
2023-02-05T04:21:12.121Z,2.63
2023-02-05T04:23:40.952Z,2.80
2023-02-05T04:26:07.556Z,2.97
2023-02-05T04:28:34.084Z,2.90
2023-02-05T04:31:00.744Z,2.67
2023-02-05T04:33:27.405Z,2.45
2023-02-05T04:35:58.799Z,2.05
2023-02-05T04:38:27.835Z,2.03
2023-02-05T04:40:59.177Z,1.75
2023-02-05T04:43:28.138Z,2.72
2023-02-05T04:45:54.691Z,2.50
2023-02-05T04:48:21.425Z,2.53
2023-02-05T04:50:50.676Z,2.83
2023-02-05T04:53:17.248Z,2.45
2023-02-05T04:55:46.741Z,2.70
2023-02-05T04:58:13.282Z,2.60
2023-02-05T05:00:39.874Z,2.88
2023-02-05T05:03:11.160Z,2.77
2023-02-05T05:05:37.752Z,2.50
2023-02-05T05:08:04.387Z,2.72
2023-02-05T05:10:30.979Z,3.28
2023-02-05T05:12:57.552Z,3.55
2023-02-05T05:15:26.370Z,2.90
2023-02-05T05:17:52.899Z,2.65
2023-02-05T05:20:19.590Z,3.40
2023-02-05T05:22:46.151Z,2.70
2023-02-05T05:25:14.894Z,2.90
2023-02-05T05:27:41.514Z,3.30
2023-02-05T05:30:08.730Z,2.42
2023-02-05T05:32:37.756Z,2.70
2023-02-05T05:35:09.230Z,3.72
2023-02-05T05:37:38.137Z,3.05
2023-02-05T05:40:25.727Z,2.53
2023-02-05T05:43:10.792Z,2.72
2023-02-05T05:45:37.326Z,3.00
2023-02-05T05:48:04.460Z,3.20
2023-02-05T05:50:33.109Z,3.13
2023-02-05T05:53:02.025Z,2.83
2023-02-05T05:55:28.613Z,2.95
2023-02-05T05:57:55.249Z,2.67
2023-02-05T06:00:22.473Z,3.15
2023-02-05T06:02:49.169Z,2.40
2023-02-05T06:05:18.205Z,2.87
2023-02-05T06:07:44.774Z,2.78
2023-02-05T06:10:13.760Z,2.35
2023-02-05T06:12:40.289Z,3.00
2023-02-05T06:15:07.402Z,2.42
2023-02-05T06:17:36.466Z,2.90
2023-02-05T06:20:03.351Z,2.63
2023-02-05T06:22:29.931Z,2.58
2023-02-05T06:24:58.528Z,2.78
2023-02-05T06:27:27.646Z,2.85
2023-02-05T06:29:54.170Z,2.50
2023-02-05T06:32:21.642Z,2.75
2023-02-05T06:34:48.212Z,2.63
2023-02-05T06:37:24.950Z,2.28
2023-02-05T06:39:52.036Z,2.78
2023-02-05T06:42:18.591Z,2.20
2023-02-05T06:44:45.149Z,2.72
2023-02-05T06:47:11.805Z,2.88
2023-02-05T06:49:43.196Z,2.65
2023-02-05T06:52:12.083Z,2.60
2023-02-05T06:54:38.904Z,2.80
2023-02-05T06:57:07.764Z,3.40
2023-02-05T06:59:39.324Z,2.83
2023-02-05T07:02:08.914Z,2.63
2023-02-05T07:04:37.698Z,2.70
2023-02-05T07:07:06.720Z,2.20
2023-02-05T07:09:33.404Z,2.92
2023-02-05T07:12:02.507Z,2.42
2023-02-05T07:14:32.226Z,2.50
2023-02-05T07:16:58.799Z,2.75
2023-02-05T07:19:27.728Z,2.50
2023-02-05T07:21:56.523Z,2.67
2023-02-05T07:24:27.960Z,2.58
2023-02-05T07:26:54.530Z,2.15
2023-02-05T07:29:23.419Z,2.20
2023-02-05T07:31:51.532Z,2.40
2023-02-05T07:34:19.541Z,2.72
2023-02-05T07:36:48.544Z,2.65
2023-02-05T07:39:16.019Z,3.05
2023-02-05T07:41:44.963Z,2.80
2023-02-05T07:44:14.003Z,3.10
2023-02-05T07:46:42.808Z,3.25
2023-02-05T07:49:11.388Z,3.50
2023-02-05T07:51:40.169Z,3.20
2023-02-05T07:54:14.534Z,3.30
2023-02-05T07:56:41.769Z,2.60
2023-02-05T07:59:08.630Z,2.85
2023-02-05T08:01:37.597Z,2.88
2023-02-05T08:04:05.498Z,3.10
2023-02-05T08:06:34.017Z,5.05
2023-02-05T08:09:03.124Z,4.67
2023-02-05T08:11:31.697Z,4.82
2023-02-05T08:13:59.128Z,4.22
2023-02-05T08:16:25.803Z,3.95
2023-02-05T08:18:52.454Z,4.00
2023-02-05T08:21:19.465Z,3.60
2023-02-05T08:23:49.099Z,3.72
2023-02-05T08:26:15.809Z,3.75
2023-02-05T08:28:47.532Z,3.22
2023-02-05T08:31:16.635Z,3.22
2023-02-05T08:33:43.677Z,3.40
2023-02-05T08:36:10.699Z,3.55
2023-02-05T08:38:39.971Z,3.40
2023-02-05T08:41:12.825Z,3.58
2023-02-05T08:43:41.738Z,3.20
2023-02-05T08:46:10.108Z,4.00
2023-02-05T08:48:37.044Z,3.30
2023-02-05T08:51:04.371Z,3.03
2023-02-05T08:53:34.268Z,3.30
2023-02-05T08:56:05.978Z,3.05
2023-02-05T08:58:35.560Z,3.23
2023-02-05T09:01:07.236Z,3.60
2023-02-05T09:03:36.596Z,3.30
2023-02-05T09:06:08.380Z,3.40
2023-02-05T09:08:39.999Z,3.35
2023-02-05T09:11:09.280Z,3.57
2023-02-05T09:13:41.030Z,3.22
2023-02-05T09:16:13.320Z,3.72
2023-02-05T09:18:42.127Z,3.58
2023-02-05T09:21:12.899Z,3.65
2023-02-05T09:23:39.439Z,3.80
2023-02-05T09:26:10.763Z,4.10
2023-02-05T09:28:40.237Z,3.45
2023-02-05T09:31:14.974Z,3.47
2023-02-05T09:33:46.284Z,4.03
2023-02-05T09:36:21.712Z,3.90
2023-02-05T09:38:49.161Z,3.88
2023-02-05T09:41:15.749Z,4.13
2023-02-05T09:43:48.132Z,3.80
2023-02-05T09:46:19.608Z,4.00
2023-02-05T09:48:49.851Z,3.97
2023-02-05T09:51:19.584Z,4.30
2023-02-05T09:53:55.635Z,3.42
2023-02-05T09:56:27.553Z,4.53
2023-02-05T09:58:58.696Z,4.55
2023-02-05T10:01:51.659Z,3.73
2023-02-05T10:04:23.744Z,4.10
2023-02-05T10:07:05.210Z,4.43
2023-02-05T10:10:16.048Z,5.18
2023-02-05T10:12:57.858Z,4.32
2023-02-05T10:15:43.003Z,5.80
2023-02-05T10:18:57.072Z,5.93
2023-02-05T10:21:32.403Z,3.85
2023-02-05T10:24:49.056Z,4.20
2023-02-05T10:27:27.957Z,4.30
2023-02-05T10:30:11.999Z,5.07
2023-02-05T10:33:00.153Z,4.78
2023-02-05T10:35:44.449Z,4.80
2023-02-05T10:38:21.398Z,3.97
2023-02-05T10:40:50.454Z,4.25
2023-02-05T10:43:26.642Z,4.87
2023-02-05T10:45:55.225Z,4.63
2023-02-05T10:48:41.060Z,4.75
2023-02-05T10:51:19.772Z,4.70
2023-02-05T10:53:46.399Z,4.40
2023-02-05T10:56:18.812Z,4.50
2023-02-05T10:58:51.333Z,4.53
2023-02-05T11:01:20.141Z,3.97
2023-02-05T11:03:54.839Z,4.65
2023-02-05T11:06:25.614Z,4.72
2023-02-05T11:08:52.408Z,4.90
2023-02-05T11:11:28.202Z,4.70
2023-02-05T11:14:03.850Z,5.18
2023-02-05T11:16:45.269Z,4.05
2023-02-05T11:19:28.470Z,4.70
2023-02-05T11:21:58.512Z,4.53
2023-02-05T11:24:36.522Z,4.85
2023-02-05T11:27:15.458Z,4.60
2023-02-05T11:29:42.971Z,4.10
2023-02-05T11:32:22.782Z,4.75
2023-02-05T11:34:49.457Z,6.67
2023-02-05T11:37:19.965Z,6.72
2023-02-05T11:39:54.924Z,5.38
2023-02-05T11:42:25.976Z,4.30
2023-02-05T11:45:01.637Z,4.70
2023-02-05T11:47:42.385Z,4.63
2023-02-05T11:50:25.332Z,4.63
2023-02-05T11:52:53.948Z,4.72
2023-02-05T11:55:31.973Z,4.38
2023-02-05T11:58:35.845Z,5.63
2023-02-05T12:01:21.855Z,5.30
2023-02-05T12:04:02.616Z,4.82
2023-02-05T12:06:37.230Z,5.80
2023-02-05T12:09:06.239Z,5.07
2023-02-05T12:12:00.968Z,5.60
2023-02-05T12:14:38.779Z,5.10
2023-02-05T12:17:33.266Z,5.80
2023-02-05T12:20:23.482Z,6.22
2023-02-05T12:23:09.834Z,6.03
2023-02-05T12:25:49.851Z,5.40
2023-02-05T12:28:43.224Z,6.37
2023-02-05T12:31:20.511Z,6.25
2023-02-05T12:34:12.199Z,6.57
2023-02-05T12:37:01.218Z,5.53
2023-02-05T12:39:38.207Z,5.60
2023-02-05T12:42:07.682Z,6.90
2023-02-05T12:44:40.645Z,5.75
2023-02-05T12:47:35.138Z,6.22
2023-02-05T12:50:45.538Z,6.15
2023-02-05T12:53:28.058Z,5.40
2023-02-05T12:56:12.272Z,6.17
2023-02-05T12:58:48.617Z,7.13
2023-02-05T13:01:21.638Z,7.53
2023-02-05T13:03:55.192Z,7.07
2023-02-05T13:06:28.808Z,6.57
2023-02-05T13:09:04.090Z,5.90
2023-02-05T13:11:30.688Z,6.47
2023-02-05T13:14:30.304Z,6.50
2023-02-05T13:17:17.346Z,6.32
2023-02-05T13:19:45.969Z,5.78
2023-02-05T13:22:38.170Z,5.47
2023-02-05T13:25:58.679Z,5.32
2023-02-05T13:28:40.122Z,6.50
2023-02-05T13:31:31.379Z,6.28
2023-02-05T13:34:04.524Z,5.10
2023-02-05T13:36:49.630Z,5.47
2023-02-05T13:39:34.452Z,5.18
2023-02-05T13:42:13.434Z,5.28
2023-02-05T13:44:58.820Z,5.78
2023-02-05T13:48:04.107Z,5.80
2023-02-05T13:50:33.553Z,5.57
2023-02-05T13:53:18.470Z,5.47
2023-02-05T13:56:19.133Z,6.00
2023-02-05T13:58:54.589Z,5.97
2023-02-05T14:01:26.459Z,5.85
2023-02-05T14:04:00.819Z,5.37
2023-02-05T14:06:43.501Z,5.65
2023-02-05T14:09:31.090Z,5.07
2023-02-05T14:12:03.504Z,4.70
2023-02-05T14:14:36.551Z,5.18
2023-02-05T14:17:31.083Z,4.10
2023-02-05T14:20:01.157Z,5.25
2023-02-05T14:22:35.678Z,4.65
2023-02-05T14:25:04.963Z,4.88
2023-02-05T14:27:40.048Z,4.70
2023-02-05T14:30:58.867Z,4.70
2023-02-05T14:33:31.571Z,4.18
2023-02-05T14:36:22.784Z,5.05
2023-02-05T14:38:56.746Z,4.70
2023-02-05T14:41:31.224Z,4.10
2023-02-05T14:44:00.711Z,4.87
2023-02-05T14:46:41.756Z,5.88
2023-02-05T14:49:26.014Z,6.22
2023-02-05T14:52:02.936Z,6.15
2023-02-05T14:54:42.738Z,4.60
2023-02-05T14:57:20.919Z,5.60
2023-02-05T15:00:34.268Z,4.65
2023-02-05T15:03:32.270Z,5.10
2023-02-05T15:06:27.761Z,4.43
2023-02-05T15:09:13.671Z,4.72
2023-02-05T15:11:52.609Z,5.23
2023-02-05T15:14:22.570Z,4.90
2023-02-05T15:17:14.005Z,5.35
2023-02-05T15:19:47.757Z,7.75
2023-02-05T15:22:44.172Z,10.35
2023-02-05T15:25:27.911Z,8.80
2023-02-05T15:28:00.158Z,8.02
2023-02-05T15:30:34.692Z,6.00
2023-02-05T15:33:05.977Z,4.97
2023-02-05T15:35:34.486Z,5.88
2023-02-05T15:38:15.263Z,5.93
2023-02-05T15:40:44.345Z,7.13
2023-02-05T15:43:23.520Z,5.90
2023-02-05T15:46:01.231Z,5.72
2023-02-05T15:48:31.554Z,5.80
2023-02-05T15:51:15.086Z,5.70
2023-02-05T15:53:49.644Z,6.95
2023-02-05T15:56:26.881Z,6.60
2023-02-05T15:59:01.111Z,6.43
2023-02-05T16:01:33.685Z,5.90
2023-02-05T16:04:00.572Z,6.10
2023-02-05T16:06:29.353Z,7.03
2023-02-05T16:08:57.482Z,6.40
2023-02-05T16:11:32.976Z,7.32
2023-02-05T16:14:13.725Z,7.20
2023-02-05T16:16:54.816Z,7.13
2023-02-05T16:19:26.483Z,6.90
2023-02-05T16:22:02.773Z,6.65
2023-02-05T16:24:45.078Z,8.43
2023-02-05T16:27:15.543Z,7.78
2023-02-05T16:29:51.860Z,7.60
2023-02-05T16:32:31.293Z,7.38
2023-02-05T16:35:00.145Z,8.80
2023-02-05T16:37:31.650Z,7.40
2023-02-05T16:40:03.475Z,7.47
2023-02-05T16:42:38.859Z,7.63
2023-02-05T16:45:08.589Z,7.15
2023-02-05T16:47:36.551Z,6.43
2023-02-05T16:50:36.056Z,6.82
2023-02-05T16:53:14.132Z,6.38
2023-02-05T16:55:43.107Z,6.60
2023-02-05T16:58:18.845Z,7.20
2023-02-05T17:00:57.162Z,6.15
2023-02-05T17:03:25.771Z,6.15
2023-02-05T17:06:01.916Z,6.15
2023-02-05T17:08:37.779Z,4.67
2023-02-05T17:11:06.499Z,4.75
2023-02-05T17:13:37.816Z,6.20
2023-02-05T17:16:29.164Z,8.15
2023-02-05T17:19:00.804Z,7.25
2023-02-05T17:21:31.528Z,6.83
2023-02-05T17:23:59.861Z,7.15
2023-02-05T17:26:30.871Z,7.68
2023-02-05T17:29:04.463Z,8.38
2023-02-05T17:31:36.787Z,4.40
2023-02-05T17:34:03.827Z,4.10
2023-02-05T17:36:30.408Z,3.58
2023-02-05T17:38:57.506Z,3.75
2023-02-05T17:41:45.143Z,3.53
2023-02-05T17:44:13.775Z,3.58
2023-02-05T17:46:42.691Z,4.43
2023-02-05T17:49:16.538Z,4.55
2023-02-05T17:51:45.820Z,5.28
2023-02-05T17:54:20.748Z,4.68
2023-02-05T17:56:52.528Z,4.97
2023-02-05T17:59:21.750Z,4.43
2023-02-05T18:01:49.820Z,4.00
2023-02-05T18:04:19.163Z,4.63
2023-02-05T18:06:48.819Z,3.90
2023-02-05T18:09:16.541Z,3.80
2023-02-05T18:11:45.408Z,3.70
2023-02-05T18:14:14.253Z,5.03
2023-02-05T18:16:41.084Z,4.25
2023-02-05T18:19:10.175Z,4.50
2023-02-05T18:21:39.407Z,4.55
2023-02-05T18:24:06.386Z,4.37
2023-02-05T18:26:33.224Z,3.85
2023-02-05T18:28:59.794Z,4.22
2023-02-05T18:31:28.600Z,4.80
2023-02-05T18:33:57.641Z,4.30
2023-02-05T18:36:26.464Z,4.00
2023-02-05T18:38:53.015Z,4.18
2023-02-05T18:41:23.282Z,4.20
2023-02-05T18:43:55.740Z,3.97
2023-02-05T18:46:25.627Z,3.20
2023-02-05T18:48:54.668Z,3.10
2023-02-05T18:51:26.155Z,3.50
2023-02-05T18:53:55.208Z,5.22
2023-02-05T18:56:24.973Z,5.47
2023-02-05T18:58:59.214Z,4.57
2023-02-05T19:01:26.268Z,5.63
2023-02-05T19:03:58.069Z,5.78
2023-02-05T19:06:24.630Z,5.20
2023-02-05T19:08:51.406Z,4.55
2023-02-05T19:11:26.361Z,4.18
2023-02-05T19:14:05.686Z,4.17
2023-02-05T19:16:36.355Z,4.13
2023-02-05T19:19:04.006Z,3.92
2023-02-05T19:21:33.834Z,5.20
2023-02-05T19:24:05.458Z,5.88
2023-02-05T19:26:34.434Z,5.90
2023-02-05T19:29:04.754Z,5.05
2023-02-05T19:31:34.477Z,5.28
2023-02-05T19:34:04.159Z,6.07
2023-02-05T19:36:33.424Z,3.78
2023-02-05T19:39:04.724Z,4.20
2023-02-05T19:41:35.272Z,4.20
2023-02-05T19:44:04.703Z,4.10
2023-02-05T19:46:34.968Z,3.72
2023-02-05T19:49:04.188Z,3.58
2023-02-05T19:51:30.827Z,4.97
2023-02-05T19:53:58.712Z,6.22
2023-02-05T19:56:25.937Z,5.75
2023-02-05T19:58:55.761Z,6.32
2023-02-05T20:01:29.361Z,6.47
2023-02-05T20:03:58.863Z,6.23
2023-02-05T20:06:29.831Z,7.25
2023-02-05T20:08:56.770Z,8.55
2023-02-05T20:11:27.833Z,8.00
2023-02-05T20:14:01.401Z,6.50
2023-02-05T20:16:30.351Z,7.63
2023-02-05T20:19:00.712Z,7.32
2023-02-05T20:21:29.245Z,7.35
2023-02-05T20:23:56.554Z,6.65
2023-02-05T20:26:26.296Z,7.68
2023-02-05T20:29:17.420Z,7.47
2023-02-05T20:31:50.348Z,6.72
2023-02-05T20:34:25.909Z,6.00
2023-02-05T20:36:55.232Z,6.25
2023-02-05T20:39:24.353Z,6.82
2023-02-05T20:41:56.199Z,5.77
2023-02-05T20:44:22.725Z,5.13
2023-02-05T20:46:51.743Z,5.80
2023-02-05T20:49:18.609Z,5.13
2023-02-05T20:51:45.211Z,4.05
2023-02-05T20:54:14.957Z,4.30
2023-02-05T20:56:41.608Z,3.17
2023-02-05T20:59:09.636Z,2.63
2023-02-05T21:01:37.775Z,2.60
2023-02-05T21:04:06.218Z,2.40
2023-02-05T21:06:38.370Z,2.50
2023-02-05T21:09:08.720Z,2.63
2023-02-05T21:11:38.389Z,2.80
2023-02-05T21:14:08.198Z,2.63
2023-02-05T21:16:38.088Z,2.40
2023-02-05T21:19:06.755Z,3.00
2023-02-05T21:21:37.028Z,3.10
2023-02-05T21:24:11.794Z,3.28
2023-02-05T21:26:41.315Z,3.60
2023-02-05T21:29:13.353Z,3.47
2023-02-05T21:31:46.436Z,3.53
2023-02-05T21:34:18.317Z,2.88
2023-02-05T21:36:50.434Z,4.38
2023-02-05T21:39:25.580Z,4.53
2023-02-05T21:41:54.726Z,4.60
2023-02-05T21:44:21.869Z,4.10
2023-02-05T21:46:48.410Z,5.30
2023-02-05T21:49:17.764Z,4.13
2023-02-05T21:51:44.340Z,3.20
2023-02-05T21:54:11.801Z,4.35
2023-02-05T21:56:43.171Z,3.77
2023-02-05T21:59:15.538Z,4.70
2023-02-05T22:01:42.820Z,5.18
2023-02-05T22:04:14.868Z,3.92
2023-02-05T22:06:42.241Z,5.55
2023-02-05T22:09:11.623Z,4.80
2023-02-05T22:11:43.280Z,5.03
2023-02-05T22:14:10.758Z,3.40
2023-02-05T22:16:40.887Z,3.72
2023-02-05T22:19:07.857Z,3.90
2023-02-05T22:21:39.590Z,3.20
2023-02-05T22:24:08.020Z,2.35
2023-02-05T22:26:39.139Z,2.88
2023-02-05T22:29:11.625Z,2.67
2023-02-05T22:31:38.369Z,3.20
2023-02-05T22:34:05.214Z,3.00
2023-02-05T22:36:35.389Z,3.08
2023-02-05T22:39:05.591Z,2.80
2023-02-05T22:41:36.658Z,3.10
2023-02-05T22:44:04.618Z,3.50
2023-02-05T22:46:34.307Z,3.10
2023-02-05T22:49:03.255Z,3.88
2023-02-05T22:51:32.211Z,2.25
2023-02-05T22:54:01.857Z,2.72
2023-02-05T22:56:28.705Z,2.95
2023-02-05T22:58:57.850Z,3.97
2023-02-05T23:01:25.435Z,3.55
2023-02-05T23:03:52.970Z,3.03
2023-02-05T23:06:19.527Z,2.58
2023-02-05T23:08:57.395Z,3.65
2023-02-05T23:11:30.134Z,3.10
2023-02-05T23:13:58.647Z,1.92
2023-02-05T23:16:36.368Z,1.77
2023-02-05T23:19:07.113Z,1.92
2023-02-05T23:21:40.557Z,1.90
2023-02-05T23:24:08.035Z,1.27
2023-02-05T23:26:39.776Z,1.70
2023-02-05T23:29:09.294Z,2.08
2023-02-05T23:31:36.376Z,1.33
2023-02-05T23:34:06.080Z,1.60
2023-02-05T23:36:33.103Z,1.77
2023-02-05T23:38:59.807Z,1.00
2023-02-05T23:41:39.833Z,1.70
2023-02-05T23:44:12.673Z,1.73
2023-02-05T23:46:40.779Z,2.30
2023-02-05T23:49:10.063Z,1.97
2023-02-05T23:51:36.895Z,1.80
2023-02-05T23:54:07.633Z,2.00
2023-02-05T23:56:34.345Z,1.70
2023-02-05T23:59:03.136Z,1.95
